createdAt,value
2017-01-13T00:00:04.064Z,85.21
2017-01-13T00:01:14.941Z,85.4
2017-01-13T00:02:24.999Z,85.4
2017-01-13T00:03:35.304Z,85.02
2017-01-13T00:04:44.829Z,85.02
2017-01-13T00:05:54.309Z,85.78
2017-01-13T00:07:04.850Z,85.59
2017-01-13T00:08:14.504Z,85.4
2017-01-13T00:09:24.207Z,85.4
2017-01-13T00:10:33.779Z,84.36
2017-01-13T00:11:43.145Z,83.88
2017-01-13T00:12:54.048Z,85.02
2017-01-13T00:14:06.873Z,86.16
2017-01-13T00:15:16.475Z,85.87
2017-01-13T00:16:27.812Z,85.78
2017-01-13T00:17:37.426Z,84.64
2017-01-13T00:18:49.408Z,84.83
2017-01-13T00:20:02.853Z,85.3
2017-01-13T00:21:14.910Z,84.83
2017-01-13T00:22:25.798Z,84.55
2017-01-13T00:23:37.709Z,84.36
2017-01-13T00:24:49.079Z,85.11
2017-01-13T00:26:00.060Z,85.87
2017-01-13T00:27:11.452Z,84.83
2017-01-13T00:28:21.707Z,83.69
2017-01-13T00:29:31.186Z,84.17
2017-01-13T00:30:42.226Z,83.03
2017-01-13T00:31:57.477Z,84.17
2017-01-13T00:33:09.101Z,85.83
2017-01-13T00:34:19.196Z,85.68
2017-01-13T00:35:31.057Z,85.97
2017-01-13T00:36:43.505Z,86.35
2017-01-13T00:37:53.007Z,85.68
2017-01-13T00:39:05.507Z,85.97
2017-01-13T00:40:16.963Z,85.21
2017-01-13T00:41:26.730Z,86.68
2017-01-13T00:42:39.582Z,86.16
2017-01-13T00:43:52.397Z,84.92
2017-01-13T00:45:04.986Z,84.64
2017-01-13T00:46:15.454Z,84.07
2017-01-13T00:47:27.077Z,85.07
2017-01-13T00:48:39.174Z,84.69
2017-01-13T00:49:49.074Z,85.07
2017-01-13T00:51:00.056Z,85.74
2017-01-13T00:52:12.261Z,87.16
2017-01-13T00:53:23.147Z,86.68
2017-01-13T00:54:34.988Z,86.4
2017-01-13T00:55:47.731Z,87.35
2017-01-13T00:57:00.232Z,87.25
2017-01-13T00:58:10.202Z,86.68
2017-01-13T00:59:21.712Z,86.21
2017-01-13T01:00:34.116Z,86.59
2017-01-13T01:01:43.754Z,86.87
2017-01-13T01:02:56.311Z,86.78
2017-01-13T01:04:10.008Z,87.63
2017-01-13T01:05:22.221Z,87.82
2017-01-13T01:06:31.720Z,88.48
2017-01-13T01:07:43.413Z,87.77
2017-01-13T01:08:55.931Z,88.63
2017-01-13T01:10:07.034Z,88.16
2017-01-13T01:11:17.925Z,89.01
2017-01-13T01:12:28.791Z,89.2
2017-01-13T01:13:39.129Z,89.29
2017-01-13T01:14:50.653Z,89.48
2017-01-13T01:16:01.189Z,89.77
2017-01-13T01:17:12.369Z,89.86
2017-01-13T01:18:23.800Z,89.58
2017-01-13T01:19:36.027Z,89.29
2017-01-13T01:20:46.219Z,89.86
2017-01-13T01:21:58.062Z,90.43
2017-01-13T01:23:10.026Z,90.53
2017-01-13T01:24:19.766Z,91
2017-01-13T01:25:31.147Z,91.09
2017-01-13T01:26:43.246Z,90.15
2017-01-13T01:27:53.165Z,90.91
2017-01-13T01:29:04.685Z,90.72
2017-01-13T01:30:16.967Z,90.24
2017-01-13T01:31:26.829Z,90.43
2017-01-13T01:32:39.347Z,90.43
2017-01-13T01:33:53.153Z,90.24
2017-01-13T01:35:05.334Z,91
2017-01-13T01:36:14.720Z,90.15
2017-01-13T01:37:26.701Z,90.15
2017-01-13T01:38:38.546Z,91
2017-01-13T01:39:47.764Z,91.09
2017-01-13T01:40:59.993Z,91.09
2017-01-13T01:42:12.001Z,90.91
2017-01-13T01:43:21.191Z,91
2017-01-13T01:44:33.291Z,91.47
2017-01-13T01:45:45.102Z,91.47
2017-01-13T01:46:54.914Z,90.72
2017-01-13T01:48:06.791Z,91
2017-01-13T01:49:18.632Z,90.72
2017-01-13T01:50:28.429Z,91
2017-01-13T01:51:40.600Z,91.09
2017-01-13T01:52:52.386Z,90.81
2017-01-13T01:54:01.874Z,90.91
2017-01-13T01:55:13.859Z,91.09
2017-01-13T01:56:25.968Z,90.15
2017-01-13T01:57:35.592Z,91
2017-01-13T01:58:47.397Z,90.91
2017-01-13T01:59:59.590Z,91
2017-01-13T02:01:08.964Z,90.72
2017-01-13T02:02:21.471Z,90.95
2017-01-13T02:03:33.252Z,91.09
2017-01-13T02:04:42.512Z,91.38
2017-01-13T02:05:54.584Z,91.05
2017-01-13T02:07:06.808Z,91.09
2017-01-13T02:08:16.296Z,91.09
2017-01-13T02:09:28.167Z,90.81
2017-01-13T02:10:40.717Z,90.81
2017-01-13T02:11:49.696Z,90.81
2017-01-13T02:13:01.627Z,90.72
2017-01-13T02:14:13.958Z,90.34
2017-01-13T02:15:23.069Z,91
2017-01-13T02:16:35.258Z,91
2017-01-13T02:17:47.557Z,91.38
2017-01-13T02:18:56.917Z,91.14
2017-01-13T02:20:08.981Z,90.39
2017-01-13T02:21:21.344Z,89.44
2017-01-13T02:22:30.348Z,89.91
2017-01-13T02:23:42.241Z,90.95
2017-01-13T02:24:54.448Z,90.77
2017-01-13T02:26:04.135Z,90.95
2017-01-13T02:27:15.754Z,90.91
2017-01-13T02:28:27.244Z,91.05
2017-01-13T02:29:38.415Z,90.2
2017-01-13T02:30:47.996Z,90.01
2017-01-13T02:32:00.244Z,91.05
2017-01-13T02:33:12.567Z,90.67
2017-01-13T02:34:25.830Z,90.05
2017-01-13T02:35:39.494Z,90.86
2017-01-13T02:36:52.397Z,90.86
2017-01-13T02:38:04.839Z,91.05
2017-01-13T02:39:13.899Z,90.58
2017-01-13T02:40:26.008Z,90.86
2017-01-13T02:41:38.446Z,90.2
2017-01-13T02:42:47.463Z,90.29
2017-01-13T02:43:59.743Z,90.67
2017-01-13T02:45:11.647Z,90.95
2017-01-13T02:46:20.980Z,90.77
2017-01-13T02:47:32.954Z,90.01
2017-01-13T02:48:45.323Z,89.25
2017-01-13T02:49:54.595Z,89.44
2017-01-13T02:51:06.837Z,89.25
2017-01-13T02:52:18.882Z,89.91
2017-01-13T02:53:28.267Z,89.91
2017-01-13T02:54:40.517Z,89.44
2017-01-13T02:55:52.301Z,89.34
2017-01-13T02:57:01.716Z,90.01
2017-01-13T02:58:13.624Z,90.39
2017-01-13T02:59:26.016Z,90.01
2017-01-13T03:00:35.424Z,90.95
2017-01-13T03:01:47.217Z,91.43
2017-01-13T03:02:59.812Z,91.14
2017-01-13T03:04:08.804Z,90.67
2017-01-13T03:05:20.708Z,90.01
2017-01-13T03:06:32.824Z,90.39
2017-01-13T03:07:42.339Z,90.67
2017-01-13T03:08:54.574Z,91.33
2017-01-13T03:10:06.521Z,90.95
2017-01-13T03:11:16.065Z,91.05
2017-01-13T03:12:27.941Z,90.95
2017-01-13T03:13:40.129Z,91.24
2017-01-13T03:14:49.342Z,90.95
2017-01-13T03:16:01.760Z,91.14
2017-01-13T03:17:13.875Z,91.43
2017-01-13T03:18:22.884Z,91.33
2017-01-13T03:19:34.925Z,91.43
2017-01-13T03:20:47.435Z,91.14
2017-01-13T03:21:57.432Z,92.09
2017-01-13T03:23:09.032Z,91.33
2017-01-13T03:24:21.183Z,92
2017-01-13T03:25:30.162Z,92
2017-01-13T03:26:42.010Z,92.19
2017-01-13T03:27:54.551Z,91.71
2017-01-13T03:29:03.603Z,92
2017-01-13T03:30:16.061Z,92.57
2017-01-13T03:31:28.467Z,92.47
2017-01-13T03:32:37.548Z,93.13
2017-01-13T03:33:49.370Z,92.94
2017-01-13T03:35:01.926Z,92.94
2017-01-13T03:36:13.798Z,92.85
2017-01-13T03:37:24.525Z,92.38
2017-01-13T03:38:37.542Z,92.85
2017-01-13T03:39:50.047Z,93.42
2017-01-13T03:40:59.027Z,93.42
2017-01-13T03:42:11.040Z,92.66
2017-01-13T03:43:22.655Z,92.33
2017-01-13T03:44:32.442Z,92.9
2017-01-13T03:45:43.092Z,93.27
2017-01-13T03:46:52.071Z,92.99
2017-01-13T03:48:01.053Z,92.8
2017-01-13T03:49:10.035Z,92.9
2017-01-13T03:50:19.020Z,92.8
2017-01-13T03:51:28.001Z,92.14
2017-01-13T03:52:36.986Z,92.52
2017-01-13T03:53:45.971Z,92.24
2017-01-13T03:54:54.951Z,91.86
2017-01-13T03:56:03.931Z,91.95
2017-01-13T03:57:12.911Z,91.76
2017-01-13T03:58:21.889Z,91.95
2017-01-13T03:59:30.875Z,91.86
2017-01-13T04:00:39.860Z,92.38
2017-01-13T04:01:48.839Z,92.47
2017-01-13T04:02:57.813Z,92.47
2017-01-13T04:04:06.792Z,92.47
2017-01-13T04:05:15.773Z,92.1
2017-01-13T04:06:24.754Z,92.94
2017-01-13T04:07:33.738Z,92.94
2017-01-13T04:08:42.714Z,92.94
2017-01-13T04:09:51.692Z,92.94
2017-01-13T04:11:00.719Z,93.61
2017-01-13T04:12:09.699Z,93.7
2017-01-13T04:13:18.675Z,94.56
2017-01-13T04:14:27.683Z,94.27
2017-01-13T04:15:36.668Z,94.56
2017-01-13T04:16:45.647Z,94.93
2017-01-13T04:17:54.631Z,95.21
2017-01-13T04:19:03.610Z,95.5
2017-01-13T04:20:12.587Z,95.88
2017-01-13T04:21:21.564Z,96.07
2017-01-13T04:22:30.543Z,96.5
2017-01-13T04:23:39.526Z,96.02
2017-01-13T04:24:48.503Z,96.88
2017-01-13T04:25:57.479Z,96.59
2017-01-13T04:27:06.462Z,97.06
2017-01-13T04:28:15.439Z,96.78
2017-01-13T04:29:24.414Z,97.44
2017-01-13T04:30:33.420Z,97.16
2017-01-13T04:31:42.399Z,97.16
2017-01-13T04:32:51.373Z,96.97
2017-01-13T04:34:00.348Z,96.97
2017-01-13T04:35:09.335Z,96.97
2017-01-13T04:36:18.314Z,97.06
2017-01-13T04:37:27.299Z,96.69
2017-01-13T04:38:36.280Z,97.16
2017-01-13T04:39:45.263Z,97.35
2017-01-13T04:40:54.241Z,97.44
2017-01-13T04:42:03.223Z,97.44
2017-01-13T04:43:12.199Z,97.06
2017-01-13T04:44:21.176Z,96.97
2017-01-13T04:45:30.161Z,97.06
2017-01-13T04:46:39.140Z,96.69
2017-01-13T04:47:48.123Z,96.78
2017-01-13T04:48:57.100Z,96.88
2017-01-13T04:50:06.081Z,96.97
2017-01-13T04:51:15.058Z,97.54
2017-01-13T04:52:24.040Z,96.88
2017-01-13T04:53:33.020Z,97.25
2017-01-13T04:54:41.998Z,97.4
2017-01-13T04:55:50.981Z,97.59
2017-01-13T04:56:59.963Z,97.68
2017-01-13T04:58:08.940Z,97.21
2017-01-13T04:59:17.948Z,97.49
2017-01-13T05:00:26.929Z,96.73
2017-01-13T05:01:35.907Z,97.11
2017-01-13T05:02:44.884Z,96.64
2017-01-13T05:03:53.865Z,96.83
2017-01-13T05:05:02.844Z,96.83
2017-01-13T05:06:11.821Z,96.92
2017-01-13T05:07:20.799Z,97.21
2017-01-13T05:08:29.780Z,96.83
2017-01-13T05:09:38.765Z,96.97
2017-01-13T05:10:47.744Z,96.92
2017-01-13T05:11:56.723Z,97.49
2017-01-13T05:13:05.701Z,97.49
2017-01-13T05:14:14.684Z,97.4
2017-01-13T05:15:23.670Z,97.02
2017-01-13T05:16:32.648Z,97.02
2017-01-13T05:17:41.626Z,96.92
2017-01-13T05:18:50.611Z,97.02
2017-01-13T05:19:59.590Z,97.02
2017-01-13T05:21:08.575Z,97.4
2017-01-13T05:22:17.551Z,97.11
2017-01-13T05:23:26.533Z,97.11
2017-01-13T05:24:35.511Z,97.4
2017-01-13T05:25:44.492Z,97.11
2017-01-13T05:26:53.474Z,96.73
2017-01-13T05:28:02.458Z,97.02
2017-01-13T05:29:11.433Z,96.73
2017-01-13T05:30:20.409Z,96.83
2017-01-13T05:31:29.389Z,97.11
2017-01-13T05:32:38.372Z,97.4
2017-01-13T05:33:47.354Z,96.64
2017-01-13T05:34:56.336Z,96.73
2017-01-13T05:36:05.325Z,97.02
2017-01-13T05:37:14.308Z,96.92
2017-01-13T05:38:23.289Z,96.92
2017-01-13T05:39:32.287Z,96.83
2017-01-13T05:40:41.267Z,96.83
2017-01-13T05:41:50.276Z,97.11
2017-01-13T05:42:59.261Z,96.64
2017-01-13T05:44:08.252Z,96.92
2017-01-13T05:45:17.231Z,96.64
2017-01-13T05:46:26.210Z,96.64
2017-01-13T05:47:35.189Z,97.02
2017-01-13T05:48:44.173Z,97.59
2017-01-13T05:49:53.154Z,97.3
2017-01-13T05:51:02.134Z,97.02
2017-01-13T05:52:11.118Z,96.83
2017-01-13T05:53:20.095Z,96.64
2017-01-13T05:54:29.077Z,96.55
2017-01-13T05:55:38.083Z,96.92
2017-01-13T05:56:47.067Z,96.83
2017-01-13T05:57:56.049Z,97.21
2017-01-13T05:59:05.030Z,96.55
2017-01-13T06:00:14.039Z,96.92
2017-01-13T06:01:23.018Z,96.64
2017-01-13T06:02:32.004Z,97.02
2017-01-13T06:03:40.990Z,96.92
2017-01-13T06:04:49.975Z,96.55
2017-01-13T06:05:58.953Z,96.64
2017-01-13T06:07:07.941Z,96.73
2017-01-13T06:08:16.942Z,96.83
2017-01-13T06:09:25.922Z,96.64
2017-01-13T06:10:34.908Z,96.78
2017-01-13T06:11:43.888Z,97.4
2017-01-13T06:12:52.868Z,97.64
2017-01-13T06:14:01.849Z,97.83
2017-01-13T06:15:10.830Z,97.92
2017-01-13T06:16:19.809Z,97.54
2017-01-13T06:17:28.793Z,96.97
2017-01-13T06:18:37.774Z,96.88
2017-01-13T06:19:46.752Z,96.59
2017-01-13T06:20:55.733Z,96.41
2017-01-13T06:22:04.716Z,96.03
2017-01-13T06:23:13.703Z,95.74
2017-01-13T06:24:22.686Z,96.41
2017-01-13T06:25:31.669Z,96.5
2017-01-13T06:26:40.645Z,97.16
2017-01-13T06:27:49.622Z,97.45
2017-01-13T06:28:58.603Z,97.07
2017-01-13T06:30:07.583Z,96.69
2017-01-13T06:31:16.564Z,97.26
2017-01-13T06:32:25.549Z,96.88
2017-01-13T06:33:34.533Z,97.07
2017-01-13T06:34:43.511Z,96.59
2017-01-13T06:35:52.495Z,96.97
2017-01-13T06:37:01.475Z,96.31
2017-01-13T06:38:10.460Z,95.65
2017-01-13T06:39:19.439Z,96.22
2017-01-13T06:40:28.416Z,96.5
2017-01-13T06:41:37.396Z,96.88
2017-01-13T06:42:46.375Z,96.97
2017-01-13T06:43:55.359Z,96.78
2017-01-13T06:45:04.343Z,96.88
2017-01-13T06:46:13.327Z,96.69
2017-01-13T06:47:22.305Z,97.16
2017-01-13T06:48:31.286Z,97.45
2017-01-13T06:49:40.267Z,97.07
2017-01-13T06:50:49.253Z,96.97
2017-01-13T06:51:58.235Z,97.35
2017-01-13T06:53:07.223Z,97.45
2017-01-13T06:54:16.203Z,97.54
2017-01-13T06:55:25.183Z,97.07
2017-01-13T06:56:34.163Z,97.45
2017-01-13T06:57:43.142Z,97.64
2017-01-13T06:58:52.134Z,97.26
2017-01-13T07:00:01.152Z,97.26
2017-01-13T07:01:10.131Z,97.45
2017-01-13T07:02:19.111Z,97.54
2017-01-13T07:03:28.091Z,97.88
2017-01-13T07:04:37.073Z,97.64
2017-01-13T07:05:46.059Z,97.45
2017-01-13T07:06:55.041Z,97.5
2017-01-13T07:08:04.049Z,97.54
2017-01-13T07:09:13.032Z,97.31
2017-01-13T07:10:22.014Z,97.26
2017-01-13T07:11:31.002Z,97.35
2017-01-13T07:12:39.985Z,97.54
2017-01-13T07:13:48.968Z,96.83
2017-01-13T07:14:57.980Z,96.73
2017-01-13T07:16:06.962Z,96.69
2017-01-13T07:17:15.941Z,96.5
2017-01-13T07:18:24.932Z,96.59
2017-01-13T07:19:33.912Z,96.31
2017-01-13T07:20:42.892Z,96.22
2017-01-13T07:21:51.876Z,96.97
2017-01-13T07:23:00.856Z,96.78
2017-01-13T07:24:09.836Z,96.88
2017-01-13T07:25:18.813Z,96.59
2017-01-13T07:26:27.796Z,96.59
2017-01-13T07:27:36.783Z,96.12
2017-01-13T07:28:45.762Z,95.74
2017-01-13T07:29:54.749Z,95.84
2017-01-13T07:31:03.739Z,96.03
2017-01-13T07:32:12.719Z,96.22
2017-01-13T07:33:21.705Z,96.78
2017-01-13T07:34:30.690Z,96.97
2017-01-13T07:35:39.674Z,97.07
2017-01-13T07:36:48.651Z,96.69
2017-01-13T07:37:57.635Z,96.69
2017-01-13T07:39:06.618Z,97.07
2017-01-13T07:40:15.601Z,96.78
2017-01-13T07:41:24.580Z,96.88
2017-01-13T07:42:33.560Z,96.69
2017-01-13T07:43:42.540Z,96.59
2017-01-13T07:44:51.525Z,96.5
2017-01-13T07:46:00.503Z,96.88
2017-01-13T07:47:09.486Z,97.07
2017-01-13T07:48:18.486Z,97.26
2017-01-13T07:49:27.478Z,96.88
2017-01-13T07:50:36.457Z,96.88
2017-01-13T07:51:45.444Z,97.07
2017-01-13T07:52:54.430Z,96.88
2017-01-13T07:54:03.420Z,97.07
2017-01-13T07:55:12.405Z,97.45
2017-01-13T07:56:21.391Z,97.73
2017-01-13T07:57:30.383Z,97.4
2017-01-13T07:58:39.371Z,97.4
2017-01-13T07:59:48.358Z,96.92
2017-01-13T08:00:57.337Z,97.4
2017-01-13T08:02:06.316Z,96.88
2017-01-13T08:03:15.306Z,97.07
2017-01-13T08:04:24.291Z,97.59
2017-01-13T08:05:33.277Z,97.64
2017-01-13T08:06:42.270Z,97.4
2017-01-13T08:07:51.279Z,97.69
2017-01-13T08:09:00.266Z,97.02
2017-01-13T08:10:09.279Z,97.12
2017-01-13T08:11:18.270Z,97.07
2017-01-13T08:12:27.251Z,97.59
2017-01-13T08:13:36.230Z,97.21
2017-01-13T08:14:45.221Z,97.02
2017-01-13T08:15:54.210Z,97.16
2017-01-13T08:17:03.193Z,97.07
2017-01-13T08:18:12.169Z,97.26
2017-01-13T08:19:21.154Z,97.31
2017-01-13T08:20:30.136Z,96.97
2017-01-13T08:21:39.134Z,96.69
2017-01-13T08:22:48.119Z,97.02
2017-01-13T08:23:57.108Z,96.69
2017-01-13T08:25:06.087Z,96.83
2017-01-13T08:26:15.066Z,97.07
2017-01-13T08:27:24.052Z,96.5
2017-01-13T08:28:33.030Z,96.59
2017-01-13T08:29:42.013Z,96.5
2017-01-13T08:30:50.996Z,96.59
2017-01-13T08:32:00.002Z,96.69
2017-01-13T08:33:08.987Z,97.07
2017-01-13T08:34:17.972Z,96.88
2017-01-13T08:35:26.953Z,96.31
2017-01-13T08:36:35.932Z,97.07
2017-01-13T08:37:44.910Z,97.07
2017-01-13T08:38:53.887Z,97.54
2017-01-13T08:40:02.884Z,97.54
2017-01-13T08:41:11.861Z,96.78
2017-01-13T08:42:20.848Z,97.59
2017-01-13T08:43:29.830Z,97.07
2017-01-13T08:44:38.842Z,97.26
2017-01-13T08:45:47.916Z,97.12
2017-01-13T08:46:56.907Z,97.54
2017-01-13T08:48:05.896Z,97.12
2017-01-13T08:49:14.938Z,97.26
2017-01-13T08:50:23.987Z,97.02
2017-01-13T08:51:33.028Z,96.97
2017-01-13T08:52:42.030Z,96.88
2017-01-13T08:53:51.017Z,97.16
2017-01-13T08:55:00.003Z,97.12
2017-01-13T08:56:08.995Z,97.07
2017-01-13T08:57:17.981Z,97.35
2017-01-13T08:58:26.971Z,96.88
2017-01-13T08:59:35.955Z,96.88
2017-01-13T09:00:44.937Z,96.69
2017-01-13T09:01:53.921Z,97.12
2017-01-13T09:03:02.904Z,96.88
2017-01-13T09:04:11.889Z,96.88
2017-01-13T09:05:21.934Z,96.83
2017-01-13T09:06:34.630Z,96.41
2017-01-13T09:07:47.376Z,96.97
2017-01-13T09:08:59.025Z,96.88
2017-01-13T09:10:09.226Z,96.88
2017-01-13T09:11:19.901Z,96.97
2017-01-13T09:12:30.866Z,97.31
2017-01-13T09:13:41.588Z,97.35
2017-01-13T09:14:51.845Z,97.54
2017-01-13T09:16:01.194Z,97.21
2017-01-13T09:17:10.360Z,97.54
2017-01-13T09:18:19.696Z,97.59
2017-01-13T09:19:29.385Z,97.12
2017-01-13T09:20:39.321Z,96.83
2017-01-13T09:21:49.330Z,96.69
2017-01-13T09:22:59.763Z,96.78
2017-01-13T09:24:09.268Z,95.98
2017-01-13T09:25:18.430Z,95.79
2017-01-13T09:26:28.561Z,96.78
2017-01-13T09:27:38.058Z,96.26
2017-01-13T09:28:49.512Z,96.41
2017-01-13T09:29:59.456Z,96.12
2017-01-13T09:31:08.498Z,95.74
2017-01-13T09:32:17.481Z,96.41
2017-01-13T09:33:27.058Z,96.97
2017-01-13T09:34:36.039Z,95.93
2017-01-13T09:35:45.022Z,96.22
2017-01-13T09:36:54.479Z,96.12
2017-01-13T09:38:04.359Z,96.97
2017-01-13T09:39:13.627Z,97.16
2017-01-13T09:40:22.610Z,97.54
2017-01-13T09:41:31.595Z,97.35
2017-01-13T09:42:41.501Z,97.16
2017-01-13T09:43:49.578Z,96.69
2017-01-13T09:44:58.567Z,96.88
2017-01-13T09:46:07.554Z,96.88
2017-01-13T09:47:16.537Z,96.69
2017-01-13T09:48:25.528Z,96.5
2017-01-13T09:49:34.507Z,96.69
2017-01-13T09:50:43.491Z,96.97
2017-01-13T09:51:52.477Z,96.97
2017-01-13T09:53:01.458Z,96.88
2017-01-13T09:54:10.442Z,96.78
2017-01-13T09:55:19.470Z,97.07
2017-01-13T09:56:28.456Z,96.69
2017-01-13T09:57:37.433Z,96.41
2017-01-13T09:58:46.419Z,96.88
2017-01-13T09:59:55.398Z,96.59
2017-01-13T10:01:04.378Z,96.88
2017-01-13T10:02:13.375Z,96.78
2017-01-13T10:03:22.358Z,96.5
2017-01-13T10:04:31.343Z,96.59
2017-01-13T10:05:40.334Z,97.45
2017-01-13T10:06:49.320Z,97.07
2017-01-13T10:07:58.647Z,97.16
2017-01-13T10:09:07.806Z,97.54
2017-01-13T10:10:16.813Z,97.64
2017-01-13T10:11:26.182Z,97.64
2017-01-13T10:12:35.601Z,97.64
2017-01-13T10:13:44.590Z,97.16
2017-01-13T10:14:53.603Z,97.35
2017-01-13T10:16:02.588Z,97.73
2017-01-13T10:17:11.572Z,97.26
2017-01-13T10:18:20.553Z,97.64
2017-01-13T10:19:29.677Z,97.26
2017-01-13T10:20:38.655Z,97.16
2017-01-13T10:21:47.639Z,96.88
2017-01-13T10:22:56.626Z,97.16
2017-01-13T10:24:05.607Z,97.45
2017-01-13T10:25:15.224Z,96.69
2017-01-13T10:26:26.030Z,96.59
2017-01-13T10:27:35.754Z,96.69
2017-01-13T10:28:45.453Z,97.07
2017-01-13T10:29:55.476Z,97.26
2017-01-13T10:31:05.718Z,97.73
2017-01-13T10:32:16.250Z,97.64
2017-01-13T10:33:26.532Z,97.54
2017-01-13T10:34:37.096Z,97.26
2017-01-13T10:35:47.903Z,97.26
2017-01-13T10:36:58.117Z,97.35
2017-01-13T10:38:08.738Z,97.73
2017-01-13T10:39:18.888Z,97.73
2017-01-13T10:40:29.387Z,97.64
2017-01-13T10:41:39.721Z,97.73
2017-01-13T10:42:48.797Z,97.54
2017-01-13T10:43:58.034Z,97.83
2017-01-13T10:45:07.360Z,97.88
2017-01-13T10:46:17.141Z,97.97
2017-01-13T10:47:27.902Z,97.21
2017-01-13T10:48:41.062Z,97.5
2017-01-13T10:49:55.075Z,97.45
2017-01-13T10:51:04.855Z,97.64
2017-01-13T10:52:15.267Z,97.45
2017-01-13T10:53:24.253Z,97.59
2017-01-13T10:54:33.299Z,97.5
2017-01-13T10:55:42.545Z,97.5
2017-01-13T10:56:51.532Z,97.54
2017-01-13T10:58:00.775Z,97.64
2017-01-13T10:59:10.800Z,97.54
2017-01-13T11:00:20.419Z,97.73
2017-01-13T11:01:29.748Z,97.26
2017-01-13T11:02:39.829Z,97.07
2017-01-13T11:03:49.150Z,97.26
2017-01-13T11:04:58.714Z,97.64
2017-01-13T11:06:08.465Z,97.45
2017-01-13T11:07:17.718Z,97.45
2017-01-13T11:08:27.781Z,97.26
2017-01-13T11:09:36.762Z,97.45
2017-01-13T11:10:46.507Z,97.54
2017-01-13T11:11:56.805Z,97.45
2017-01-13T11:13:05.852Z,97.64
2017-01-13T11:14:15.102Z,97.73
2017-01-13T11:15:24.089Z,97.45
2017-01-13T11:16:33.080Z,97.54
2017-01-13T11:17:42.061Z,97.73
2017-01-13T11:18:51.045Z,97.54
2017-01-13T11:20:00.029Z,96.69
2017-01-13T11:21:09.012Z,96.78
2017-01-13T11:22:18.004Z,96.31
2017-01-13T11:23:26.991Z,96.41
2017-01-13T11:24:36.264Z,96.41
2017-01-13T11:25:45.251Z,97.26
2017-01-13T11:26:54.238Z,96.69
2017-01-13T11:28:03.219Z,96.69
2017-01-13T11:29:12.208Z,96.5
2017-01-13T11:30:21.193Z,96.5
2017-01-13T11:31:30.176Z,96.12
2017-01-13T11:32:39.170Z,96.03
2017-01-13T11:33:48.169Z,96.31
2017-01-13T11:34:57.150Z,95.74
2017-01-13T11:36:06.130Z,96.22
2017-01-13T11:37:15.115Z,95.93
2017-01-13T11:38:24.092Z,96.31
2017-01-13T11:39:33.084Z,96.78
2017-01-13T11:40:42.070Z,96.69
2017-01-13T11:41:51.049Z,96.78
2017-01-13T11:43:00.050Z,96.78
2017-01-13T11:44:09.031Z,96.03
2017-01-13T11:45:18.011Z,96.69
2017-01-13T11:46:27.002Z,96.83
2017-01-13T11:47:35.982Z,96.69
2017-01-13T11:48:44.967Z,96.59
2017-01-13T11:49:53.945Z,96.59
2017-01-13T11:51:02.925Z,96.97
2017-01-13T11:52:11.902Z,96.97
2017-01-13T11:53:20.886Z,96.31
2017-01-13T11:54:29.865Z,96.03
2017-01-13T11:55:38.859Z,96.03
2017-01-13T11:56:47.842Z,96.78
2017-01-13T11:57:56.819Z,96.41
2017-01-13T11:59:05.804Z,96.41
2017-01-13T12:00:14.791Z,96.59
2017-01-13T12:01:23.781Z,96.55
2017-01-13T12:02:32.763Z,96.78
2017-01-13T12:03:41.747Z,95.79
2017-01-13T12:04:50.731Z,96.22
2017-01-13T12:05:59.745Z,95.65
2017-01-13T12:07:09.230Z,96.26
2017-01-13T12:08:18.447Z,96.03
2017-01-13T12:09:28.125Z,96.03
2017-01-13T12:10:37.748Z,96.17
2017-01-13T12:11:46.738Z,96.26
2017-01-13T12:12:55.720Z,96.36
2017-01-13T12:14:04.755Z,96.73
2017-01-13T12:15:13.734Z,96.07
2017-01-13T12:16:22.732Z,96.26
2017-01-13T12:17:31.721Z,96.64
2017-01-13T12:18:40.965Z,96.55
2017-01-13T12:19:49.948Z,96.83
2017-01-13T12:20:59.357Z,96.36
2017-01-13T12:22:08.338Z,96.83
2017-01-13T12:23:17.322Z,97.16
2017-01-13T12:24:26.321Z,97.68
2017-01-13T12:25:35.309Z,97.73
2017-01-13T12:26:44.321Z,97.73
2017-01-13T12:27:53.304Z,97.45
2017-01-13T12:29:02.289Z,97.16
2017-01-13T12:30:11.273Z,97.07
2017-01-13T12:31:20.254Z,96.88
2017-01-13T12:32:29.233Z,97.21
2017-01-13T12:33:38.248Z,96.92
2017-01-13T12:34:47.237Z,96.69
2017-01-13T12:35:56.243Z,96.88
2017-01-13T12:37:05.240Z,96.88
2017-01-13T12:38:14.331Z,98.54
2017-01-13T12:39:23.314Z,99.82
2017-01-13T12:40:32.302Z,99.06
2017-01-13T12:41:41.284Z,98.58
2017-01-13T12:42:50.264Z,97.26
2017-01-13T12:43:59.246Z,97.07
2017-01-13T12:45:08.233Z,96.41
2017-01-13T12:46:17.213Z,95.65
2017-01-13T12:47:26.196Z,95.93
2017-01-13T12:48:35.181Z,95.84
2017-01-13T12:49:44.171Z,95.93
2017-01-13T12:50:53.176Z,96.03
2017-01-13T12:52:02.167Z,95.69
2017-01-13T12:53:11.152Z,95.74
2017-01-13T12:54:20.141Z,96.03
2017-01-13T12:55:29.124Z,95.6
2017-01-13T12:56:38.166Z,95.69
2017-01-13T12:57:47.149Z,95.5
2017-01-13T12:58:56.137Z,95.22
2017-01-13T13:00:05.152Z,95.5
2017-01-13T13:01:14.402Z,95.5
2017-01-13T13:02:23.566Z,95.22
2017-01-13T13:03:32.605Z,95.31
2017-01-13T13:04:41.605Z,95.5
2017-01-13T13:05:50.727Z,95.41
2017-01-13T13:06:59.713Z,96.07
2017-01-13T13:08:11.604Z,95.31
2017-01-13T13:09:21.534Z,94.93
2017-01-13T13:10:30.619Z,95.31
2017-01-13T13:11:40.034Z,95.45
2017-01-13T13:12:49.025Z,95.64
2017-01-13T13:13:58.009Z,95.64
2017-01-13T13:15:06.990Z,95.17
2017-01-13T13:16:15.971Z,95.5
2017-01-13T13:17:24.953Z,95.55
2017-01-13T13:18:33.934Z,96.02
2017-01-13T13:19:42.927Z,95.55
2017-01-13T13:20:51.908Z,95.64
2017-01-13T13:22:00.897Z,96.59
2017-01-13T13:23:09.885Z,96.59
2017-01-13T13:24:18.867Z,96.5
2017-01-13T13:25:27.848Z,96.88
2017-01-13T13:26:36.829Z,97.25
2017-01-13T13:27:45.814Z,96.97
2017-01-13T13:28:54.801Z,96.88
2017-01-13T13:30:03.783Z,97.44
2017-01-13T13:31:12.767Z,97.16
2017-01-13T13:32:21.754Z,97.06
2017-01-13T13:33:30.757Z,97.35
2017-01-13T13:34:39.744Z,97.54
2017-01-13T13:35:48.721Z,97.63
2017-01-13T13:36:57.713Z,97.54
2017-01-13T13:38:06.701Z,97.87
2017-01-13T13:39:15.683Z,97.87
2017-01-13T13:40:24.667Z,97.63
2017-01-13T13:41:33.648Z,97.54
2017-01-13T13:42:42.630Z,97.63
2017-01-13T13:43:51.613Z,97.3
2017-01-13T13:45:00.597Z,98.06
2017-01-13T13:46:09.581Z,98.3
2017-01-13T13:47:18.565Z,97.82
2017-01-13T13:48:27.554Z,98.11
2017-01-13T13:49:36.537Z,97.92
2017-01-13T13:50:45.521Z,98.77
2017-01-13T13:51:54.501Z,98.68
2017-01-13T13:53:03.482Z,99.24
2017-01-13T13:54:12.468Z,99.48
2017-01-13T13:55:21.457Z,99.29
2017-01-13T13:56:30.439Z,99.1
2017-01-13T13:57:39.422Z,99.01
2017-01-13T13:58:48.404Z,99.2
2017-01-13T13:59:57.413Z,99.01
2017-01-13T14:01:06.400Z,98.82
2017-01-13T14:02:15.377Z,98.82
2017-01-13T14:03:24.361Z,98.91
2017-01-13T14:04:33.339Z,99.2
2017-01-13T14:05:42.317Z,99.1
2017-01-13T14:06:51.296Z,98.82
2017-01-13T14:08:00.279Z,98.82
2017-01-13T14:09:09.262Z,99.01
2017-01-13T14:10:18.289Z,98.91
2017-01-13T14:11:27.274Z,98.91
2017-01-13T14:12:36.252Z,99.2
2017-01-13T14:13:45.229Z,99.01
2017-01-13T14:14:54.210Z,98.91
2017-01-13T14:16:03.191Z,99.48
2017-01-13T14:17:12.171Z,99.2
2017-01-13T14:18:21.148Z,99.2
2017-01-13T14:19:30.129Z,99.1
2017-01-13T14:20:39.132Z,99.29
2017-01-13T14:21:48.126Z,99.2
2017-01-13T14:22:57.114Z,99.2
2017-01-13T14:24:07.258Z,99.29
2017-01-13T14:25:19.285Z,99.39
2017-01-13T14:26:30.121Z,99.2
2017-01-13T14:27:40.732Z,99.39
2017-01-13T14:28:51.032Z,99.2
2017-01-13T14:30:02.283Z,99.96
2017-01-13T14:31:13.437Z,99.67
2017-01-13T14:32:25.470Z,99.67
2017-01-13T14:33:37.149Z,99.67
2017-01-13T14:34:48.936Z,99.67
2017-01-13T14:35:59.674Z,99.39
2017-01-13T14:37:09.228Z,99.67
2017-01-13T14:38:19.290Z,99.67
2017-01-13T14:39:28.651Z,99.67
2017-01-13T14:40:38.338Z,99.67
2017-01-13T14:41:47.961Z,99.86
2017-01-13T14:42:57.652Z,99.77
2017-01-13T14:44:06.643Z,99.67
2017-01-13T14:45:15.636Z,99.48
2017-01-13T14:46:24.733Z,99.67
2017-01-13T14:47:34.098Z,99.77
2017-01-13T14:48:43.079Z,99.99
2017-01-13T14:49:52.061Z,99.67
2017-01-13T14:51:01.044Z,99.67
2017-01-13T14:52:10.031Z,99.67
2017-01-13T14:53:19.109Z,99.77
2017-01-13T14:54:28.169Z,99.96
2017-01-13T14:55:37.153Z,99.96
2017-01-13T14:56:46.144Z,99.77
2017-01-13T14:57:55.122Z,99.67
2017-01-13T14:59:04.104Z,99.58
2017-01-13T15:00:13.081Z,99.67